createdAt,value
2018-05-14T00:00:34.686Z,6.80
2018-05-14T00:03:01.893Z,7.50
2018-05-14T00:05:29.079Z,8.87
2018-05-14T00:07:56.294Z,7.80
2018-05-14T00:10:23.479Z,7.77
2018-05-14T00:12:50.671Z,9.10
2018-05-14T00:15:17.890Z,8.23
2018-05-14T00:17:45.093Z,9.30
2018-05-14T00:20:12.289Z,8.93
2018-05-14T00:22:39.486Z,9.10
2018-05-14T00:25:06.868Z,8.70
2018-05-14T00:27:34.082Z,8.20
2018-05-14T00:30:01.485Z,7.53
2018-05-14T00:32:28.674Z,7.40
2018-05-14T00:34:55.881Z,7.40
2018-05-14T00:37:23.068Z,6.90
2018-05-14T00:39:50.267Z,7.47
2018-05-14T00:42:17.441Z,8.40
2018-05-14T00:44:44.642Z,7.30
2018-05-14T00:47:11.825Z,7.27
2018-05-14T00:49:39.012Z,7.57
2018-05-14T00:52:06.201Z,7.30
2018-05-14T00:54:33.386Z,6.67
2018-05-14T00:57:00.582Z,6.53
2018-05-14T00:59:27.770Z,6.87
2018-05-14T01:01:54.958Z,5.87
2018-05-14T01:04:22.144Z,7.70
2018-05-14T01:06:49.330Z,6.63
2018-05-14T01:09:16.529Z,8.23
2018-05-14T01:11:43.723Z,7.33
2018-05-14T01:14:10.674Z,6.50
2018-05-14T01:16:37.862Z,8.43
2018-05-14T01:19:05.054Z,9.13
2018-05-14T01:21:32.294Z,9.03
2018-05-14T01:23:59.493Z,9.40
2018-05-14T01:26:26.718Z,11.00
2018-05-14T01:28:53.905Z,10.90
2018-05-14T01:31:21.109Z,10.17
2018-05-14T01:33:48.311Z,11.93
2018-05-14T01:36:15.498Z,12.70
2018-05-14T01:38:42.790Z,13.13
2018-05-14T01:41:09.981Z,12.00
2018-05-14T01:43:37.183Z,12.90
2018-05-14T01:46:04.377Z,12.27
2018-05-14T01:48:31.559Z,13.10
2018-05-14T01:50:58.762Z,12.40
2018-05-14T01:53:25.959Z,13.00
2018-05-14T01:55:53.166Z,13.70
2018-05-14T01:58:20.365Z,13.90
2018-05-14T02:00:47.570Z,14.83
2018-05-14T02:03:14.793Z,14.57
2018-05-14T02:05:41.979Z,14.40
2018-05-14T02:08:09.193Z,15.30
2018-05-14T02:10:36.385Z,14.00
2018-05-14T02:13:03.594Z,14.20
2018-05-14T02:15:30.782Z,14.07
2018-05-14T02:17:57.986Z,14.30
2018-05-14T02:20:25.195Z,13.63
2018-05-14T02:22:52.379Z,13.57
2018-05-14T02:25:19.585Z,13.80
2018-05-14T02:27:46.772Z,13.00
2018-05-14T02:30:13.982Z,12.90
2018-05-14T02:32:41.204Z,14.93
2018-05-14T02:35:08.417Z,14.57
2018-05-14T02:37:35.618Z,14.00
2018-05-14T02:40:02.826Z,14.60
2018-05-14T02:42:30.017Z,15.10
2018-05-14T02:44:57.230Z,16.23
2018-05-14T02:47:24.435Z,14.73
2018-05-14T02:49:51.614Z,14.60
2018-05-14T02:52:18.820Z,16.33
2018-05-14T02:54:46.027Z,15.80
2018-05-14T02:57:13.219Z,15.77
2018-05-14T02:59:40.416Z,14.50
2018-05-14T03:02:07.817Z,14.50
2018-05-14T03:04:35.142Z,13.30
2018-05-14T03:07:02.326Z,13.90
2018-05-14T03:09:29.529Z,14.40
2018-05-14T03:11:56.730Z,13.90
2018-05-14T03:14:23.922Z,14.80
2018-05-14T03:16:51.124Z,14.13
2018-05-14T03:19:18.322Z,13.57
2018-05-14T03:21:45.529Z,14.10
2018-05-14T03:24:12.731Z,14.87
2018-05-14T03:26:39.685Z,14.30
2018-05-14T03:29:06.906Z,14.60
2018-05-14T03:31:34.116Z,14.83
2018-05-14T03:34:01.310Z,14.90
2018-05-14T03:36:28.501Z,15.50
2018-05-14T03:38:55.732Z,16.37
2018-05-14T03:41:22.929Z,14.33
2018-05-14T03:43:50.177Z,16.30
2018-05-14T03:46:17.537Z,15.87
2018-05-14T03:48:44.723Z,14.60
2018-05-14T03:51:11.943Z,14.70
2018-05-14T03:53:39.146Z,15.17
2018-05-14T03:56:06.350Z,14.53
2018-05-14T03:58:39.282Z,16.77
2018-05-14T04:01:12.292Z,16.57
2018-05-14T04:03:45.149Z,15.70
2018-05-14T04:06:18.038Z,14.70
2018-05-14T04:08:45.226Z,13.77
2018-05-14T04:11:12.419Z,14.20
2018-05-14T04:13:39.604Z,13.10
2018-05-14T04:16:06.807Z,15.30
2018-05-14T04:18:34.033Z,12.43
2018-05-14T04:21:01.220Z,14.07
2018-05-14T04:23:28.428Z,13.43
2018-05-14T04:25:55.627Z,13.63
2018-05-14T04:28:22.825Z,14.03
2018-05-14T04:30:50.001Z,14.23
2018-05-14T04:33:17.214Z,14.40
2018-05-14T04:35:44.421Z,12.80
2018-05-14T04:38:11.624Z,13.70
2018-05-14T04:40:38.854Z,14.03
2018-05-14T04:43:06.051Z,13.57
2018-05-14T04:45:33.276Z,14.73
2018-05-14T04:48:00.466Z,12.40
2018-05-14T04:50:27.667Z,14.17
2018-05-14T04:52:54.874Z,14.07
2018-05-14T04:55:22.074Z,14.30
2018-05-14T04:57:49.273Z,14.50
2018-05-14T05:00:16.485Z,13.10
2018-05-14T05:02:43.687Z,14.60
2018-05-14T05:05:10.897Z,14.87
2018-05-14T05:07:38.082Z,14.93
2018-05-14T05:10:05.290Z,14.00
2018-05-14T05:12:32.493Z,14.00
2018-05-14T05:14:59.712Z,15.57
2018-05-14T05:17:26.931Z,14.53
2018-05-14T05:19:54.158Z,14.70
2018-05-14T05:22:21.359Z,13.10
2018-05-14T05:24:48.553Z,12.73
2018-05-14T05:27:15.755Z,14.00
2018-05-14T05:29:42.961Z,11.90
2018-05-14T05:32:10.187Z,11.40
2018-05-14T05:34:37.386Z,14.40
2018-05-14T05:37:04.578Z,13.67
2018-05-14T05:39:31.784Z,13.50
2018-05-14T05:41:58.979Z,13.20
2018-05-14T05:44:26.191Z,14.93
2018-05-14T05:46:53.386Z,13.50
2018-05-14T05:49:20.598Z,13.50
2018-05-14T05:51:47.794Z,13.00
2018-05-14T05:54:14.982Z,13.93
2018-05-14T05:56:42.179Z,12.40
2018-05-14T05:59:09.387Z,12.63
2018-05-14T06:01:36.697Z,11.80
2018-05-14T06:04:03.893Z,13.50
2018-05-14T06:06:31.099Z,12.63
2018-05-14T06:08:58.342Z,13.23
2018-05-14T06:11:25.580Z,12.03
2018-05-14T06:13:52.843Z,13.30
2018-05-14T06:16:20.036Z,12.93
2018-05-14T06:18:47.260Z,12.20
2018-05-14T06:21:14.447Z,13.33
2018-05-14T06:23:41.654Z,12.30
2018-05-14T06:26:08.900Z,11.57
2018-05-14T06:28:36.113Z,11.17
2018-05-14T06:31:03.312Z,11.50
2018-05-14T06:33:30.522Z,11.23
2018-05-14T06:35:57.720Z,11.53
2018-05-14T06:38:24.914Z,11.10
2018-05-14T06:40:52.115Z,11.87
2018-05-14T06:43:19.343Z,11.20
2018-05-14T06:45:46.526Z,11.50
2018-05-14T06:48:13.732Z,10.40
2018-05-14T06:50:40.927Z,11.53
2018-05-14T06:53:08.150Z,11.13
2018-05-14T06:55:35.360Z,11.17
2018-05-14T06:58:02.681Z,11.27
2018-05-14T07:00:29.874Z,10.70
2018-05-14T07:02:57.083Z,11.17
2018-05-14T07:05:24.282Z,11.73
2018-05-14T07:07:51.501Z,10.43
2018-05-14T07:10:18.855Z,11.63
2018-05-14T07:12:46.092Z,10.97
2018-05-14T07:15:13.463Z,10.67
2018-05-14T07:17:40.733Z,10.87
2018-05-14T07:20:08.001Z,10.30
2018-05-14T07:22:35.209Z,10.40
2018-05-14T07:25:02.430Z,11.27
2018-05-14T07:27:29.629Z,10.80
2018-05-14T07:29:56.889Z,10.90
2018-05-14T07:32:24.103Z,10.80
2018-05-14T07:34:51.294Z,11.70
2018-05-14T07:37:18.639Z,11.53
2018-05-14T07:39:45.835Z,11.30
2018-05-14T07:42:13.042Z,11.07
2018-05-14T07:44:40.245Z,10.90
2018-05-14T07:47:07.450Z,10.60
2018-05-14T07:49:34.658Z,11.03
2018-05-14T07:52:01.894Z,10.80
2018-05-14T07:54:29.096Z,10.27
2018-05-14T07:56:56.321Z,19.83
2018-05-14T07:59:23.522Z,15.13
2018-05-14T08:01:50.744Z,11.10
2018-05-14T08:04:17.959Z,10.50
2018-05-14T08:06:45.144Z,11.60
2018-05-14T08:09:12.369Z,13.00
2018-05-14T08:11:39.602Z,11.40
2018-05-14T08:14:06.977Z,11.17
2018-05-14T08:16:34.166Z,13.30
2018-05-14T08:19:01.366Z,12.27
2018-05-14T08:21:28.596Z,11.60
2018-05-14T08:23:55.812Z,10.47
2018-05-14T08:26:23.020Z,11.70
2018-05-14T08:28:50.229Z,10.00
2018-05-14T08:31:17.429Z,9.23
2018-05-14T08:33:44.640Z,9.10
2018-05-14T08:36:11.862Z,10.77
2018-05-14T08:38:39.059Z,11.40
2018-05-14T08:41:06.284Z,10.30
2018-05-14T08:43:33.466Z,12.27
2018-05-14T08:46:00.794Z,11.67
2018-05-14T08:48:27.986Z,9.90
2018-05-14T08:50:55.181Z,11.30
2018-05-14T08:53:22.395Z,12.10
2018-05-14T08:55:49.593Z,11.57
2018-05-14T08:58:17.066Z,12.60
2018-05-14T09:00:44.270Z,11.03
2018-05-14T09:03:11.630Z,13.00
2018-05-14T09:05:38.837Z,11.43
2018-05-14T09:08:06.060Z,11.23
2018-05-14T09:10:33.319Z,9.87
2018-05-14T09:13:00.530Z,10.07
2018-05-14T09:15:27.734Z,10.93
2018-05-14T09:17:54.925Z,11.90
2018-05-14T09:20:22.147Z,11.30
2018-05-14T09:22:49.350Z,11.57
2018-05-14T09:25:16.544Z,10.80
2018-05-14T09:27:43.739Z,11.17
2018-05-14T09:30:10.977Z,11.53
2018-05-14T09:32:38.158Z,12.00
2018-05-14T09:35:05.381Z,11.80
2018-05-14T09:37:32.575Z,13.27
2018-05-14T09:39:59.807Z,12.87
2018-05-14T09:42:27.005Z,12.57
2018-05-14T09:44:54.214Z,12.60
2018-05-14T09:47:21.435Z,13.40
2018-05-14T09:49:48.625Z,13.40
2018-05-14T09:52:15.834Z,12.47
2018-05-14T09:54:43.037Z,13.73
2018-05-14T09:57:10.253Z,12.13
2018-05-14T09:59:37.467Z,13.47
2018-05-14T10:02:04.701Z,12.93
2018-05-14T10:04:31.910Z,13.27
2018-05-14T10:06:59.105Z,12.13
2018-05-14T10:09:26.316Z,11.10
2018-05-14T10:11:53.512Z,13.37
2018-05-14T10:14:20.722Z,12.50
2018-05-14T10:16:47.922Z,12.10
2018-05-14T10:19:15.135Z,11.90
2018-05-14T10:21:42.334Z,9.70
2018-05-14T10:24:09.528Z,10.97
2018-05-14T10:26:36.735Z,13.23
2018-05-14T10:29:03.917Z,14.60
2018-05-14T10:31:31.126Z,12.10
2018-05-14T10:33:58.331Z,11.97
2018-05-14T10:36:25.557Z,11.83
2018-05-14T10:38:52.755Z,12.00
2018-05-14T10:41:19.958Z,12.30
2018-05-14T10:43:46.917Z,12.83
2018-05-14T10:46:14.130Z,13.30
2018-05-14T10:48:41.346Z,12.57
2018-05-14T10:51:08.536Z,12.40
2018-05-14T10:53:35.751Z,13.30
2018-05-14T10:56:02.988Z,13.90
2018-05-14T10:58:30.235Z,10.70
2018-05-14T11:00:57.444Z,13.20
2018-05-14T11:03:24.666Z,12.87
2018-05-14T11:05:51.853Z,13.33
2018-05-14T11:08:19.065Z,12.87
2018-05-14T11:10:46.038Z,14.03
2018-05-14T11:13:13.253Z,12.20
2018-05-14T11:15:40.477Z,12.53
2018-05-14T11:18:07.675Z,12.77
2018-05-14T11:20:34.881Z,14.30
2018-05-14T11:23:02.101Z,14.20
2018-05-14T11:25:29.313Z,13.73
2018-05-14T11:27:56.601Z,14.20
2018-05-14T11:30:23.928Z,14.93
2018-05-14T11:32:51.205Z,13.60
2018-05-14T11:35:18.582Z,15.03
2018-05-14T11:37:45.962Z,12.53
2018-05-14T11:40:13.166Z,13.57
2018-05-14T11:42:40.374Z,15.10
2018-05-14T11:45:07.571Z,14.53
2018-05-14T11:47:34.771Z,14.57
2018-05-14T11:50:01.967Z,14.07
2018-05-14T11:52:29.370Z,14.17
2018-05-14T11:54:56.587Z,14.83
2018-05-14T11:57:23.794Z,16.20
2018-05-14T11:59:50.995Z,15.60
2018-05-14T12:02:18.234Z,16.87
2018-05-14T12:04:45.446Z,16.30
2018-05-14T12:07:12.658Z,16.40
2018-05-14T12:09:39.850Z,15.50
2018-05-14T12:12:07.117Z,16.63
2018-05-14T12:14:34.463Z,14.43
2018-05-14T12:17:01.677Z,17.33
2018-05-14T12:19:28.873Z,17.00
2018-05-14T12:21:56.090Z,16.03
2018-05-14T12:24:23.307Z,19.30
2018-05-14T12:26:50.530Z,19.90
2018-05-14T12:29:17.717Z,18.93
2018-05-14T12:31:44.933Z,18.60
2018-05-14T12:34:12.150Z,20.73
2018-05-14T12:36:39.333Z,17.57
2018-05-14T12:39:06.589Z,21.23
2018-05-14T12:41:33.784Z,21.00
2018-05-14T12:44:00.998Z,19.90
2018-05-14T12:46:28.194Z,19.33
2018-05-14T12:48:55.422Z,17.80
2018-05-14T12:51:22.618Z,18.97
2018-05-14T12:53:49.834Z,18.90
2018-05-14T12:56:17.077Z,18.27
2018-05-14T12:58:44.283Z,16.20
2018-05-14T13:01:11.476Z,16.90
2018-05-14T13:03:38.690Z,16.87
2018-05-14T13:06:05.914Z,16.20
2018-05-14T13:08:33.131Z,17.63
2018-05-14T13:11:00.346Z,15.73
2018-05-14T13:13:27.570Z,16.63
2018-05-14T13:15:54.771Z,17.20
2018-05-14T13:18:21.982Z,19.50
2018-05-14T13:20:49.222Z,19.07
2018-05-14T13:23:16.590Z,18.67
2018-05-14T13:25:43.786Z,18.50
2018-05-14T13:28:10.995Z,21.87
2018-05-14T13:30:38.216Z,21.87
2018-05-14T13:33:05.446Z,21.47
2018-05-14T13:35:32.674Z,22.27
2018-05-14T13:37:59.996Z,19.77
2018-05-14T13:40:27.294Z,21.63
2018-05-14T13:42:54.504Z,19.13
2018-05-14T13:45:21.717Z,19.70
2018-05-14T13:47:48.911Z,18.17
2018-05-14T13:53:10.468Z,16.87
2018-05-14T13:55:37.695Z,17.70
2018-05-14T13:58:10.641Z,17.03
2018-05-14T14:00:39.031Z,17.40
2018-05-14T14:03:06.219Z,16.57
2018-05-14T14:05:33.413Z,16.67
2018-05-14T14:08:00.626Z,15.57
2018-05-14T14:10:27.822Z,16.30
2018-05-14T14:12:55.056Z,15.30
2018-05-14T14:15:22.251Z,14.80
2018-05-14T14:17:49.449Z,15.80
2018-05-14T14:20:16.652Z,16.30
2018-05-14T14:22:45.730Z,17.00
2018-05-14T14:25:12.995Z,15.70
2018-05-14T14:27:40.195Z,13.67
2018-05-14T14:30:07.397Z,11.17
2018-05-14T14:32:34.586Z,9.70
2018-05-14T14:35:01.795Z,7.37
2018-05-14T14:37:28.987Z,7.00
2018-05-14T14:39:56.185Z,7.53
2018-05-14T14:42:23.394Z,6.40
2018-05-14T14:44:50.626Z,6.47
2018-05-14T14:47:17.811Z,7.17
2018-05-14T14:49:45.001Z,7.03
2018-05-14T14:52:12.209Z,6.83
2018-05-14T14:54:39.415Z,7.70
2018-05-14T14:57:06.618Z,6.73
2018-05-14T14:59:34.162Z,7.47
2018-05-14T15:02:02.365Z,5.90
2018-05-14T15:04:29.578Z,5.90
2018-05-14T15:06:56.794Z,4.27
2018-05-14T15:09:24.182Z,3.60
2018-05-14T15:11:51.361Z,2.70
2018-05-14T15:14:18.565Z,3.77
2018-05-14T15:16:45.748Z,3.80
2018-05-14T15:19:12.951Z,3.77
2018-05-14T15:21:40.144Z,4.60
2018-05-14T15:24:07.334Z,4.77
2018-05-14T15:26:34.630Z,5.20
2018-05-14T15:29:01.824Z,5.80
2018-05-14T15:31:29.035Z,4.47
2018-05-14T15:33:56.217Z,4.70
2018-05-14T15:36:23.542Z,3.90
2018-05-14T15:38:50.735Z,3.57
2018-05-14T15:41:17.987Z,3.43
2018-05-14T15:43:45.349Z,3.40
2018-05-14T15:46:12.594Z,3.67
2018-05-14T15:48:39.778Z,3.73
2018-05-14T15:51:06.985Z,3.80
2018-05-14T15:53:34.192Z,2.80
2018-05-14T15:56:01.390Z,3.03
2018-05-14T15:58:28.608Z,3.00
2018-05-14T16:00:55.877Z,2.20
2018-05-14T16:03:23.082Z,2.43
2018-05-14T16:05:50.271Z,2.37
2018-05-14T16:08:17.525Z,2.20
2018-05-14T16:10:44.728Z,2.53
2018-05-14T16:13:11.913Z,2.43
2018-05-14T16:15:39.110Z,2.63
2018-05-14T16:18:06.332Z,2.00
2018-05-14T16:20:33.532Z,2.03
2018-05-14T16:23:00.734Z,1.97
2018-05-14T16:25:27.973Z,2.17
2018-05-14T16:27:55.161Z,2.00
2018-05-14T16:30:22.415Z,1.70
2018-05-14T16:32:49.593Z,1.43
2018-05-14T16:35:16.867Z,1.40
2018-05-14T16:37:44.089Z,1.60
2018-05-14T16:40:11.311Z,1.53
2018-05-14T16:42:38.515Z,1.73
2018-05-14T16:45:05.695Z,1.63
2018-05-14T16:47:32.911Z,2.13
2018-05-14T16:50:02.458Z,1.70
2018-05-14T16:52:29.683Z,1.83
2018-05-14T16:54:56.901Z,1.57
2018-05-14T16:57:24.205Z,2.40
2018-05-14T16:59:51.708Z,1.50
2018-05-14T17:02:19.091Z,1.27
2018-05-14T17:04:46.329Z,1.50
2018-05-14T17:07:13.525Z,1.27
2018-05-14T17:09:40.731Z,1.60
2018-05-14T17:12:07.926Z,1.73
2018-05-14T17:14:35.119Z,1.70
2018-05-14T17:17:02.330Z,1.50
2018-05-14T17:19:29.736Z,1.87
2018-05-14T17:21:56.937Z,1.77
2018-05-14T17:24:24.147Z,1.63
2018-05-14T17:26:51.401Z,1.80
2018-05-14T17:29:18.598Z,1.83
2018-05-14T17:31:45.828Z,1.40
2018-05-14T17:34:13.049Z,1.50
2018-05-14T17:36:40.288Z,1.53
2018-05-14T17:39:07.541Z,1.67
2018-05-14T17:41:34.764Z,1.60
2018-05-14T17:44:01.990Z,1.50
2018-05-14T17:46:29.219Z,1.50
2018-05-14T17:48:56.452Z,2.00
2018-05-14T17:51:23.653Z,2.77
2018-05-14T17:53:50.910Z,1.57
2018-05-14T17:56:18.102Z,2.07
2018-05-14T17:58:45.408Z,1.50
2018-05-14T18:01:12.594Z,1.70
2018-05-14T18:03:41.338Z,1.70
2018-05-14T18:06:08.609Z,1.83
2018-05-14T18:08:35.845Z,1.93
2018-05-14T18:11:03.121Z,1.87
2018-05-14T18:13:30.472Z,1.77
2018-05-14T18:15:57.681Z,1.87
2018-05-14T18:18:24.945Z,2.10
2018-05-14T18:20:51.953Z,2.20
2018-05-14T18:23:23.793Z,1.63
2018-05-14T18:25:54.582Z,2.10
2018-05-14T18:28:21.726Z,1.93
2018-05-14T18:30:48.712Z,1.70
2018-05-14T18:33:26.455Z,1.70
2018-05-14T18:35:55.430Z,2.00
2018-05-14T18:38:22.633Z,2.00
2018-05-14T18:40:50.443Z,1.97
2018-05-14T18:43:17.654Z,1.97
2018-05-14T18:45:44.892Z,1.60
2018-05-14T18:48:12.119Z,2.20
2018-05-14T18:50:39.352Z,1.90
2018-05-14T18:53:06.576Z,2.57
2018-05-14T18:55:33.852Z,1.57
2018-05-14T18:58:01.138Z,2.23
2018-05-14T19:00:28.377Z,1.97
2018-05-14T19:02:55.627Z,2.07
2018-05-14T19:05:22.909Z,2.40
2018-05-14T19:07:50.155Z,1.93
2018-05-14T19:10:22.871Z,2.20
2018-05-14T19:12:50.092Z,1.93
2018-05-14T19:15:22.961Z,1.60
2018-05-14T19:17:55.813Z,2.80
2018-05-14T19:20:23.045Z,1.60
2018-05-14T19:22:55.822Z,2.20
2018-05-14T19:25:23.108Z,2.07
2018-05-14T19:27:56.017Z,1.83
2018-05-14T19:30:23.322Z,2.30
2018-05-14T19:32:50.559Z,1.77
2018-05-14T19:35:23.463Z,1.87
2018-05-14T19:37:50.696Z,2.10
2018-05-14T19:40:23.425Z,2.37
2018-05-14T19:42:50.663Z,1.77
2018-05-14T19:45:17.925Z,1.70
2018-05-14T19:47:46.876Z,2.27
2018-05-14T19:50:14.227Z,2.30
2018-05-14T19:52:41.708Z,2.50
2018-05-14T19:55:08.949Z,2.13
2018-05-14T19:57:36.220Z,2.10
2018-05-14T20:00:03.503Z,2.33
2018-05-14T20:02:30.829Z,2.00
2018-05-14T20:04:58.111Z,2.30
2018-05-14T20:07:25.335Z,2.10
2018-05-14T20:09:52.575Z,2.20
2018-05-14T20:12:19.981Z,2.23
2018-05-14T20:14:47.291Z,1.97
2018-05-14T20:17:15.460Z,2.27
2018-05-14T20:19:42.692Z,2.47
2018-05-14T20:22:09.933Z,2.27
2018-05-14T20:24:37.165Z,2.30
2018-05-14T20:27:04.423Z,2.17
2018-05-14T20:29:31.647Z,2.83
2018-05-14T20:31:58.861Z,1.90
2018-05-14T20:34:26.094Z,2.37
2018-05-14T20:36:53.313Z,2.60
2018-05-14T20:39:20.523Z,2.33
2018-05-14T20:41:47.773Z,2.20
2018-05-14T20:44:14.992Z,2.33
2018-05-14T20:46:42.326Z,2.17
2018-05-14T20:49:09.672Z,2.33
2018-05-14T20:51:36.895Z,1.90
2018-05-14T20:54:04.128Z,2.03
2018-05-14T20:56:31.333Z,2.80
2018-05-14T20:58:58.554Z,2.20
2018-05-14T21:01:25.779Z,2.57
2018-05-14T21:03:52.975Z,2.23
2018-05-14T21:06:20.182Z,1.93
2018-05-14T21:08:47.398Z,2.37
2018-05-14T21:11:14.599Z,1.80
2018-05-14T21:13:41.802Z,2.07
2018-05-14T21:16:09.011Z,2.30
2018-05-14T21:18:36.239Z,2.17
2018-05-14T21:21:03.487Z,3.07
2018-05-14T21:23:30.691Z,2.03
2018-05-14T21:25:57.954Z,1.73
2018-05-14T21:28:25.153Z,1.93
2018-05-14T21:30:52.363Z,2.40
2018-05-14T21:33:19.594Z,3.13
2018-05-14T21:35:46.813Z,3.70
2018-05-14T21:38:14.052Z,3.67
2018-05-14T21:40:41.254Z,2.73
2018-05-14T21:43:08.470Z,3.10
2018-05-14T21:45:35.682Z,2.80
2018-05-14T21:48:02.937Z,2.40
2018-05-14T21:50:30.206Z,2.37
2018-05-14T21:52:57.583Z,2.50
2018-05-14T21:55:24.818Z,2.50
2018-05-14T21:57:52.018Z,1.63
2018-05-14T22:00:19.243Z,2.20
2018-05-14T22:02:46.445Z,2.30
2018-05-14T22:05:13.665Z,2.53
2018-05-14T22:07:40.893Z,2.50
2018-05-14T22:10:08.125Z,2.40
2018-05-14T22:12:35.332Z,2.57
2018-05-14T22:15:02.531Z,2.60
2018-05-14T22:17:29.745Z,3.40
2018-05-14T22:19:56.940Z,3.50
2018-05-14T22:22:24.163Z,3.80
2018-05-14T22:24:51.395Z,4.50
2018-05-14T22:27:18.611Z,4.03
2018-05-14T22:29:45.794Z,4.10
2018-05-14T22:32:12.983Z,3.70
2018-05-14T22:34:40.185Z,4.00
2018-05-14T22:37:07.386Z,4.50
2018-05-14T22:39:34.569Z,4.13
2018-05-14T22:42:01.777Z,4.37
2018-05-14T22:44:28.984Z,3.53
2018-05-14T22:46:56.171Z,4.50
2018-05-14T22:49:23.416Z,4.20
2018-05-14T22:51:50.666Z,4.43
2018-05-14T22:54:23.646Z,4.47
2018-05-14T22:56:50.851Z,4.00
2018-05-14T22:59:18.032Z,4.27
2018-05-14T23:01:45.221Z,4.67
2018-05-14T23:04:12.431Z,4.40
2018-05-14T23:06:39.638Z,4.23
2018-05-14T23:09:06.852Z,4.33
2018-05-14T23:11:34.062Z,4.10
2018-05-14T23:14:01.286Z,4.70
2018-05-14T23:16:28.699Z,4.70
2018-05-14T23:18:55.885Z,4.30
2018-05-14T23:21:23.083Z,4.30
2018-05-14T23:23:50.297Z,4.37
2018-05-14T23:26:17.488Z,3.90
2018-05-14T23:28:44.706Z,5.23
2018-05-14T23:31:11.889Z,4.20
2018-05-14T23:33:39.106Z,5.10
2018-05-14T23:36:06.296Z,4.00
2018-05-14T23:38:33.506Z,5.07
2018-05-14T23:41:00.735Z,5.80
2018-05-14T23:43:27.954Z,4.97
2018-05-14T23:45:55.229Z,5.30
2018-05-14T23:48:22.532Z,5.10
2018-05-14T23:50:49.729Z,5.53
2018-05-14T23:53:16.929Z,6.50
2018-05-14T23:55:44.125Z,5.17
2018-05-14T23:58:11.328Z,6.70
